Time;durP1;ratioP1;P1;durP2;ratioP2;P2;SDS_P1;SDS_P2;PMS_P1;PMS_P2;Temp;Humidity;BMP_temperature;BMP_pressure;BME280_temperature;BME280_humidity;BME280_pressure;Samples;Min_cycle;Max_cycle;Signal;HPM_P1;HPM_P2
2022/09/28 00:02:11;;;;;;;1.40;1.40;;;15.50;99.90;;;;;;5004424;28;20250;-74
2022/09/28 00:04:38;;;;;;;1.67;1.57;;;15.60;99.90;;;;;;5009128;28;20730;-74
2022/09/28 00:07:05;;;;;;;1.40;1.30;;;15.60;99.90;;;;;;5008106;28;20195;-74
2022/09/28 00:09:32;;;;;;;1.50;1.40;;;15.60;99.90;;;;;;5008896;28;20211;-74
2022/09/28 00:11:59;;;;;;;1.40;1.30;;;15.50;99.90;;;;;;5010762;28;20636;-75
2022/09/28 00:14:27;;;;;;;1.67;1.57;;;15.50;99.90;;;;;;5023233;28;21086;-75
2022/09/28 00:16:55;;;;;;;1.50;1.40;;;15.50;99.90;;;;;;5008433;28;20198;-74
2022/09/28 00:19:22;;;;;;;1.50;1.40;;;15.50;99.90;;;;;;5009927;28;20230;-76
2022/09/28 00:21:49;;;;;;;1.40;1.30;;;15.50;99.90;;;;;;5012455;28;20191;-74
2022/09/28 00:24:17;;;;;;;1.33;1.27;;;15.50;99.90;;;;;;5011283;28;20219;-74
2022/09/28 00:26:47;;;;;;;1.50;1.30;;;15.40;99.90;;;;;;5030781;28;20180;-75
2022/09/28 00:29:21;;;;;;;1.43;1.33;;;15.40;99.90;;;;;;5037723;28;20193;-75
2022/09/28 00:31:58;;;;;;;1.43;1.33;;;15.40;99.90;;;;;;5032984;28;20249;-74
2022/09/28 00:34:41;;;;;;;1.07;1.00;;;15.40;99.90;;;;;;5050987;28;20233;-74
2022/09/28 00:37:09;;;;;;;0.80;0.80;;;15.40;99.90;;;;;;5038249;28;20220;-74
2022/09/28 00:39:42;;;;;;;1.00;1.00;;;15.40;99.90;;;;;;5034604;28;20502;-74
2022/09/28 00:42:15;;;;;;;1.03;1.03;;;15.30;99.90;;;;;;5036332;28;20175;-74
2022/09/28 00:44:49;;;;;;;1.20;1.20;;;15.40;99.90;;;;;;5017105;28;20199;-74
2022/09/28 00:47:37;;;;;;;1.80;1.17;;;15.40;99.90;;;;;;5007394;28;20698;-75
2022/09/28 00:50:12;;;;;;;1.10;1.10;;;15.40;99.90;;;;;;5010940;28;20245;-75
2022/09/28 00:52:49;;;;;;;0.90;0.90;;;15.30;99.90;;;;;;5010624;28;20187;-75
2022/09/28 00:55:21;;;;;;;1.00;1.00;;;15.30;99.90;;;;;;5026354;28;20218;-75
2022/09/28 00:57:54;;;;;;;0.80;0.80;;;15.30;99.90;;;;;;5009826;28;20195;-74
2022/09/28 01:00:31;;;;;;;0.90;0.77;;;15.30;99.90;;;;;;5011012;28;20195;-75
2022/09/28 01:03:03;;;;;;;0.87;0.80;;;15.30;99.90;;;;;;5011202;28;20252;-74
2022/09/28 01:05:37;;;;;;;1.00;1.00;;;15.30;99.90;;;;;;5010935;28;20199;-75
2022/09/28 01:08:06;;;;;;;0.77;0.77;;;15.30;99.90;;;;;;5007367;28;20210;-73
2022/09/28 01:10:34;;;;;;;0.70;0.70;;;15.40;99.90;;;;;;5009708;28;20195;-73
2022/09/28 01:13:01;;;;;;;1.10;1.00;;;15.40;99.90;;;;;;5011055;28;20230;-74
2022/09/28 01:15:29;;;;;;;1.10;0.83;;;15.40;99.90;;;;;;5010721;28;20225;-74
2022/09/28 01:18:12;;;;;;;5.80;2.03;;;15.40;99.90;;;;;;5010474;28;20659;-75
2022/09/28 01:21:01;;;;;;;4.17;2.37;;;15.50;99.90;;;;;;5010462;28;20199;-74
2022/09/28 01:23:48;;;;;;;4.33;2.27;;;15.40;99.90;;;;;;5006684;28;20326;-75
2022/09/28 01:26:48;;;;;;;4.67;2.13;;;15.40;99.90;;;;;;5010159;28;20623;-74
2022/09/28 01:29:28;;;;;;;3.50;1.73;;;15.40;99.90;;;;;;4970471;28;20794;-75
2022/09/28 01:32:02;;;;;;;3.30;1.80;;;15.30;99.90;;;;;;5003074;28;20198;-75
2022/09/28 01:34:36;;;;;;;2.87;1.60;;;15.40;99.90;;;;;;5011673;28;20206;-75
2022/09/28 01:37:09;;;;;;;6.43;2.40;;;15.30;99.90;;;;;;5011116;28;20562;-75
2022/09/28 01:39:41;;;;;;;3.73;2.10;;;15.30;99.90;;;;;;5007763;28;20787;-75
2022/09/28 01:42:14;;;;;;;3.20;1.80;;;15.30;99.90;;;;;;5010813;28;20250;-74
2022/09/28 01:44:44;;;;;;;4.07;1.90;;;15.30;99.90;;;;;;5007901;28;20738;-75
2022/09/28 01:47:15;;;;;;;2.20;1.30;;;15.30;99.90;;;;;;5010231;28;20195;-75
2022/09/28 01:49:45;;;;;;;2.13;1.47;;;15.30;99.90;;;;;;5007204;28;20206;-75
2022/09/28 01:52:16;;;;;;;2.03;1.40;;;15.30;99.90;;;;;;5005848;28;20203;-75
2022/09/28 01:54:49;;;;;;;2.50;2.30;;;15.30;99.90;;;;;;5007208;28;20281;-76
2022/09/28 01:57:24;;;;;;;8.87;6.57;;;15.30;99.90;;;;;;5008863;28;20631;-75
2022/09/28 01:59:59;;;;;;;7.07;5.03;;;15.30;99.90;;;;;;5009679;28;20281;-74
2022/09/28 02:02:31;;;;;;;4.00;3.60;;;15.20;99.90;;;;;;5010114;28;20590;-74
2022/09/28 02:05:04;;;;;;;3.10;2.80;;;15.30;99.90;;;;;;5008020;28;20964;-74
2022/09/28 02:07:37;;;;;;;3.07;2.70;;;15.20;99.90;;;;;;5007608;28;20295;-75
2022/09/28 02:10:10;;;;;;;1.70;1.60;;;15.20;99.90;;;;;;5008689;28;20231;-74
2022/09/28 02:12:43;;;;;;;1.80;1.70;;;15.10;99.90;;;;;;5009144;28;20203;-75
2022/09/28 02:15:18;;;;;;;1.50;1.40;;;15.10;99.90;;;;;;5009517;28;20767;-75
2022/09/28 02:17:46;;;;;;;1.70;1.60;;;15.10;99.90;;;;;;5010040;28;20195;-75
2022/09/28 02:20:17;;;;;;;1.20;1.20;;;15.10;99.90;;;;;;5009747;28;20237;-75
2022/09/28 02:22:47;;;;;;;1.30;1.10;;;15.10;99.90;;;;;;5006536;28;20200;-75
2022/09/28 02:25:22;;;;;;;1.10;1.10;;;15.10;99.90;;;;;;5008257;28;20199;-75
2022/09/28 02:27:56;;;;;;;1.03;1.03;;;15.10;99.90;;;;;;5009138;28;20293;-75
2022/09/28 02:30:24;;;;;;;1.00;1.00;;;15.10;99.90;;;;;;5009381;28;20265;-75
2022/09/28 02:32:54;;;;;;;1.07;0.97;;;15.10;99.90;;;;;;5009359;28;20282;-75
2022/09/28 02:35:22;;;;;;;0.70;0.70;;;15.10;99.90;;;;;;5008876;28;20679;-75
2022/09/28 02:37:50;;;;;;;0.70;0.70;;;15.10;99.90;;;;;;5008207;28;20269;-75
2022/09/28 02:40:20;;;;;;;0.80;0.80;;;15.10;99.90;;;;;;5007830;28;20203;-76
2022/09/28 02:43:00;;;;;;;0.70;0.70;;;15.00;99.90;;;;;;5009350;28;20227;-76
2022/09/28 02:45:45;;;;;;;0.60;0.60;;;15.00;99.90;;;;;;5007159;28;20202;-76
2022/09/28 02:48:22;;;;;;;0.60;0.60;;;15.00;99.90;;;;;;5008397;28;20215;-76
2022/09/28 02:50:58;;;;;;;0.63;0.63;;;15.00;99.90;;;;;;5009231;28;20209;-76
2022/09/28 02:53:47;;;;;;;0.73;0.73;;;15.00;99.90;;;;;;5007085;28;20281;-76
2022/09/28 02:56:25;;;;;;;0.50;0.50;;;15.00;99.90;;;;;;5008234;28;20234;-76
2022/09/28 02:59:04;;;;;;;0.70;0.70;;;15.00;99.90;;;;;;5008144;28;20203;-76
2022/09/28 03:01:39;;;;;;;0.70;0.70;;;15.00;99.90;;;;;;5008638;28;20723;-75
2022/09/28 03:04:13;;;;;;;0.60;0.60;;;15.00;99.90;;;;;;5008482;28;20198;-75
2022/09/28 03:06:46;;;;;;;0.83;0.83;;;15.10;99.90;;;;;;5007741;28;20620;-75
2022/09/28 03:09:18;;;;;;;1.00;1.00;;;15.10;99.90;;;;;;5005665;28;20191;-76
2022/09/28 03:11:49;;;;;;;1.43;1.17;;;15.00;99.90;;;;;;5007709;28;20667;-75
2022/09/28 03:14:18;;;;;;;0.77;0.77;;;15.00;99.90;;;;;;5007905;28;20602;-76
2022/09/28 03:16:51;;;;;;;1.47;1.23;;;15.00;99.90;;;;;;5008351;28;20230;-75
2022/09/28 03:19:24;;;;;;;0.90;0.90;;;15.00;99.90;;;;;;5007863;28;20298;-75
2022/09/28 03:21:52;;;;;;;0.97;0.97;;;15.00;99.90;;;;;;5008210;28;20273;-75
2022/09/28 03:24:19;;;;;;;0.90;0.90;;;15.00;99.90;;;;;;5007061;28;20274;-75
2022/09/28 03:26:46;;;;;;;0.90;0.90;;;15.10;99.90;;;;;;5007943;28;20223;-74
2022/09/28 03:29:14;;;;;;;1.20;1.10;;;15.10;99.90;;;;;;5008502;28;20214;-75
2022/09/28 03:31:47;;;;;;;1.50;1.10;;;15.10;99.90;;;;;;5008754;28;20199;-75
2022/09/28 03:34:15;;;;;;;1.70;1.60;;;15.10;99.90;;;;;;5007855;28;20210;-75
2022/09/28 03:36:43;;;;;;;2.20;2.00;;;15.00;99.90;;;;;;5006085;28;20211;-74
2022/09/28 03:39:10;;;;;;;4.00;2.20;;;15.00;99.90;;;;;;5007221;28;20203;-75
2022/09/28 03:41:38;;;;;;;1.93;1.83;;;15.00;99.90;;;;;;5006540;28;20742;-75
2022/09/28 03:44:05;;;;;;;1.40;1.30;;;14.90;99.90;;;;;;5007746;28;20207;-75
2022/09/28 03:46:33;;;;;;;1.50;1.40;;;14.90;99.90;;;;;;5007900;28;20202;-75
2022/09/28 03:49:08;;;;;;;1.83;1.57;;;14.90;99.90;;;;;;5006745;28;20203;-74
2022/09/28 03:51:35;;;;;;;1.63;1.53;;;14.90;99.90;;;;;;5011208;28;20258;-74
2022/09/28 03:54:02;;;;;;;1.57;1.47;;;14.90;99.90;;;;;;5004907;28;20199;-72
2022/09/28 03:56:29;;;;;;;2.03;1.30;;;14.90;99.90;;;;;;5005791;28;20230;-73
2022/09/28 03:58:56;;;;;;;3.10;1.40;;;14.90;99.90;;;;;;5009138;28;20535;-73
2022/09/28 04:01:23;;;;;;;2.07;1.83;;;14.90;99.90;;;;;;5005653;28;20602;-73
2022/09/28 04:03:54;;;;;;;1.30;1.20;;;14.90;99.90;;;;;;5008933;28;20198;-73
2022/09/28 04:06:23;;;;;;;1.90;1.80;;;14.80;99.90;;;;;;5006253;28;20195;-74
2022/09/28 04:08:51;;;;;;;1.67;1.57;;;14.80;99.90;;;;;;5006904;28;20207;-73
2022/09/28 04:11:19;;;;;;;1.30;1.30;;;14.80;99.90;;;;;;5011378;28;20199;-73
2022/09/28 04:13:49;;;;;;;1.20;1.20;;;14.80;99.90;;;;;;5007372;28;20229;-73
2022/09/28 04:16:17;;;;;;;1.30;1.20;;;14.80;99.90;;;;;;5005899;28;20619;-74
2022/09/28 04:18:50;;;;;;;1.40;1.30;;;14.80;99.90;;;;;;5007718;28;20220;-73
2022/09/28 04:21:34;;;;;;;1.90;1.20;;;14.80;99.90;;;;;;5023922;28;20289;-74
2022/09/28 04:24:09;;;;;;;1.40;1.30;;;14.80;99.90;;;;;;5006866;28;20383;-73
2022/09/28 04:26:36;;;;;;;1.40;1.30;;;14.80;99.90;;;;;;5004900;28;20195;-73
2022/09/28 04:29:15;;;;;;;1.37;1.27;;;14.80;99.90;;;;;;5007341;28;20195;-73
2022/09/28 04:31:48;;;;;;;1.40;1.30;;;14.80;99.90;;;;;;5007228;28;20198;-73
2022/09/28 04:34:18;;;;;;;1.97;1.40;;;14.80;99.90;;;;;;5005828;28;20265;-73
2022/09/28 04:36:50;;;;;;;1.60;1.50;;;14.80;99.90;;;;;;5006966;28;20703;-74
2022/09/28 04:39:18;;;;;;;2.83;2.30;;;14.80;99.90;;;;;;5006877;28;20195;-73
2022/09/28 04:41:51;;;;;;;1.73;1.63;;;14.70;99.90;;;;;;5007712;28;20683;-73
2022/09/28 04:44:19;;;;;;;2.60;2.40;;;14.80;99.90;;;;;;5005423;28;20200;-73
2022/09/28 04:46:47;;;;;;;2.20;2.00;;;14.80;99.90;;;;;;5007301;28;20698;-73
2022/09/28 04:49:29;;;;;;;2.10;2.00;;;14.70;99.90;;;;;;5008149;28;20286;-73
2022/09/28 04:52:08;;;;;;;2.47;2.27;;;14.70;99.90;;;;;;5004345;28;20218;-73
2022/09/28 04:54:35;;;;;;;2.67;2.30;;;14.70;99.90;;;;;;5004533;28;20258;-74
2022/09/28 04:57:04;;;;;;;2.67;2.47;;;14.70;99.90;;;;;;5006731;28;20218;-73
2022/09/28 04:59:32;;;;;;;2.53;2.33;;;14.70;99.90;;;;;;5006546;28;20226;-73
2022/09/28 05:02:00;;;;;;;3.63;3.23;;;14.70;99.90;;;;;;5007458;28;20239;-73
2022/09/28 05:04:54;;;;;;;3.00;2.77;;;14.70;99.90;;;;;;5007634;28;20329;-73
2022/09/28 05:07:44;;;;;;;2.07;1.97;;;14.70;99.90;;;;;;4988934;28;20211;-73
2022/09/28 05:10:11;;;;;;;2.20;1.73;;;14.70;99.90;;;;;;5010294;28;20229;-73
2022/09/28 05:12:39;;;;;;;2.10;2.00;;;14.70;99.90;;;;;;5010914;28;20237;-73
2022/09/28 05:15:07;;;;;;;2.93;2.27;;;14.70;99.90;;;;;;5011464;28;20207;-73
2022/09/28 05:17:34;;;;;;;3.40;3.07;;;14.70;99.90;;;;;;5010604;28;20661;-73
2022/09/28 05:20:10;;;;;;;3.80;2.70;;;14.70;99.90;;;;;;5009746;28;20206;-73
2022/09/28 05:22:38;;;;;;;3.70;3.37;;;14.70;99.90;;;;;;5010110;28;20203;-74
2022/09/28 05:25:09;;;;;;;3.20;2.90;;;14.70;99.90;;;;;;5010097;28;20203;-73
2022/09/28 05:27:55;;;;;;;3.33;2.67;;;14.70;99.90;;;;;;5010694;28;20196;-74
2022/09/28 05:30:39;;;;;;;2.60;2.40;;;14.70;99.90;;;;;;5010955;28;20203;-73
2022/09/28 05:33:26;;;;;;;4.40;2.43;;;14.70;99.90;;;;;;5001375;28;20207;-74
2022/09/28 05:36:09;;;;;;;3.27;2.97;;;14.70;99.90;;;;;;5006961;28;20559;-73
2022/09/28 05:38:37;;;;;;;3.27;2.97;;;14.70;99.90;;;;;;5009699;28;20693;-73
2022/09/28 05:41:07;;;;;;;3.40;3.10;;;14.70;99.90;;;;;;5009901;28;20277;-73
2022/09/28 05:43:35;;;;;;;2.50;2.30;;;14.70;99.90;;;;;;5010723;28;20202;-73
2022/09/28 05:46:04;;;;;;;2.10;2.00;;;14.70;99.90;;;;;;5010520;28;20199;-73
2022/09/28 05:48:32;;;;;;;1.60;1.50;;;14.70;99.90;;;;;;5009140;28;20290;-73
2022/09/28 05:50:59;;;;;;;1.87;1.77;;;14.70;99.90;;;;;;5012533;28;20199;-74
2022/09/28 05:53:26;;;;;;;1.57;1.43;;;14.70;99.90;;;;;;5008428;28;20293;-73
2022/09/28 05:55:57;;;;;;;3.00;1.60;;;14.70;99.90;;;;;;5011043;28;20281;-73
2022/09/28 05:58:27;;;;;;;1.60;1.50;;;14.70;99.90;;;;;;5009353;28;20199;-73
2022/09/28 06:00:58;;;;;;;2.93;1.77;;;14.70;99.90;;;;;;5008954;28;20195;-73
2022/09/28 06:03:25;;;;;;;2.07;1.87;;;14.70;99.90;;;;;;5008424;28;20227;-73
2022/09/28 06:05:53;;;;;;;2.80;2.07;;;14.70;99.90;;;;;;5008984;28;20196;-73
2022/09/28 06:08:21;;;;;;;2.93;2.60;;;14.70;99.90;;;;;;5008311;28;20203;-73
2022/09/28 06:11:00;;;;;;;3.43;3.10;;;14.70;99.90;;;;;;5001980;28;20203;-73
2022/09/28 06:13:29;;;;;;;2.37;2.17;;;14.70;99.90;;;;;;5006523;28;20569;-74
2022/09/28 06:15:56;;;;;;;2.10;2.00;;;14.70;99.90;;;;;;5007183;28;20222;-73
2022/09/28 06:18:23;;;;;;;1.63;1.53;;;14.70;99.90;;;;;;5007608;28;20682;-75
2022/09/28 06:21:20;;;;;;;1.90;1.80;;;14.70;99.90;;;;;;5006347;28;20348;-74
2022/09/28 06:23:47;;;;;;;1.87;1.73;;;14.70;99.90;;;;;;5005766;28;20297;-74
2022/09/28 06:26:14;;;;;;;2.03;1.80;;;14.80;99.90;;;;;;5007421;28;20195;-76
2022/09/28 06:28:43;;;;;;;2.10;2.00;;;14.80;99.90;;;;;;5007811;28;20265;-73
2022/09/28 06:31:10;;;;;;;3.20;2.80;;;14.80;99.90;;;;;;5006247;28;20246;-73
2022/09/28 06:33:44;;;;;;;1.97;1.87;;;14.80;99.90;;;;;;5008129;28;20214;-73
2022/09/28 06:36:12;;;;;;;2.17;1.97;;;14.80;99.90;;;;;;5007830;28;20302;-73
2022/09/28 06:38:39;;;;;;;1.70;1.60;;;14.80;99.90;;;;;;5006888;28;20273;-74
2022/09/28 06:41:06;;;;;;;1.87;1.77;;;14.80;99.90;;;;;;5007153;28;20988;-73
2022/09/28 06:43:33;;;;;;;1.90;1.80;;;14.80;99.90;;;;;;5008253;28;20211;-73
2022/09/28 06:46:14;;;;;;;1.50;1.40;;;14.80;99.90;;;;;;5006674;28;20192;-74
2022/09/28 06:48:50;;;;;;;1.90;1.80;;;14.80;99.90;;;;;;5006905;28;20202;-74
2022/09/28 06:51:21;;;;;;;1.77;1.67;;;14.80;99.90;;;;;;5008159;28;20206;-74
2022/09/28 06:53:57;;;;;;;2.40;1.80;;;14.80;99.90;;;;;;5006011;28;20282;-74
2022/09/28 06:56:40;;;;;;;2.20;2.00;;;14.90;99.90;;;;;;5007082;28;20211;-73
2022/09/28 06:59:07;;;;;;;2.20;2.10;;;14.80;99.90;;;;;;5006525;28;20207;-74
2022/09/28 07:01:37;;;;;;;2.73;2.53;;;14.90;99.90;;;;;;5005189;28;20330;-74
2022/09/28 07:04:20;;;;;;;2.83;2.50;;;14.80;99.90;;;;;;5006203;28;20199;-74
2022/09/28 07:07:05;;;;;;;1.87;1.77;;;14.80;99.90;;;;;;5005827;28;20194;-74
2022/09/28 07:09:54;;;;;;;3.87;2.27;;;14.80;99.90;;;;;;5009147;28;20210;-74
2022/09/28 07:12:37;;;;;;;2.80;2.60;;;14.80;99.90;;;;;;5007649;28;20203;-74
2022/09/28 07:15:19;;;;;;;2.07;1.97;;;14.80;99.90;;;;;;5006858;28;20302;-74
2022/09/28 07:17:47;;;;;;;3.60;2.33;;;14.80;99.90;;;;;;5006169;28;20241;-74
2022/09/28 07:20:15;;;;;;;4.57;2.20;;;14.80;99.90;;;;;;5006227;28;20299;-74
2022/09/28 07:22:43;;;;;;;1.90;1.80;;;14.80;99.90;;;;;;5008311;28;20206;-74
2022/09/28 07:25:15;;;;;;;2.23;1.83;;;14.80;99.90;;;;;;5005854;28;20254;-74
2022/09/28 07:28:05;;;;;;;1.60;1.50;;;14.80;99.90;;;;;;4977631;28;20606;-74
2022/09/28 07:30:56;;;;;;;1.10;1.10;;;14.80;99.90;;;;;;5007698;28;20215;-74
2022/09/28 07:33:55;;;;;;;1.00;1.00;;;14.80;99.90;;;;;;4998218;28;20191;-74
2022/09/28 07:36:57;;;;;;;1.37;1.27;;;14.80;99.90;;;;;;5000510;28;20227;-74
2022/09/28 07:39:24;;;;;;;1.27;1.27;;;14.80;99.90;;;;;;5005431;28;20206;-74
2022/09/28 07:41:51;;;;;;;1.10;1.10;;;14.80;99.90;;;;;;5003921;28;20280;-75
2022/09/28 07:44:19;;;;;;;1.70;1.60;;;14.90;99.90;;;;;;5006986;28;20187;-74
2022/09/28 07:46:48;;;;;;;1.70;1.60;;;14.90;99.90;;;;;;5007470;28;20680;-75
2022/09/28 07:49:23;;;;;;;1.40;1.30;;;14.80;99.90;;;;;;5005424;28;20221;-74
2022/09/28 07:52:21;;;;;;;1.67;1.10;;;14.90;99.90;;;;;;4986823;28;21027;-74
2022/09/28 07:55:08;;;;;;;1.50;1.30;;;14.90;99.90;;;;;;5007788;28;20198;-73
2022/09/28 07:57:55;;;;;;;2.40;1.27;;;14.80;99.90;;;;;;5006243;28;20269;-74
2022/09/28 08:00:34;;;;;;;1.33;1.23;;;14.80;99.90;;;;;;5006738;28;20199;-74
2022/09/28 08:03:02;;;;;;;0.90;0.90;;;14.80;99.90;;;;;;5005475;28;20223;-74
2022/09/28 08:05:34;;;;;;;1.17;1.00;;;14.80;99.90;;;;;;5006608;28;20218;-74
2022/09/28 08:08:02;;;;;;;1.10;1.10;;;14.80;99.90;;;;;;5006328;28;20203;-74
2022/09/28 08:10:30;;;;;;;2.40;1.10;;;14.80;99.90;;;;;;5005283;28;20770;-74
2022/09/28 08:13:02;;;;;;;1.43;1.10;;;14.90;99.90;;;;;;5008836;28;20286;-74
2022/09/28 08:15:49;;;;;;;1.00;1.00;;;14.80;99.90;;;;;;4995948;28;20890;-75
2022/09/28 08:18:24;;;;;;;1.43;1.37;;;14.90;99.90;;;;;;5005701;28;20214;-74
2022/09/28 08:23:38;;;;;;;1.67;1.57;;;14.90;99.90;;;;;;5005636;28;20207;-75
2022/09/28 08:26:06;;;;;;;1.30;1.30;;;14.90;99.90;;;;;;5006454;28;20211;-73
2022/09/28 08:28:35;;;;;;;1.47;1.37;;;14.90;99.90;;;;;;5006135;28;20951;-73
2022/09/28 08:31:17;;;;;;;1.30;1.20;;;14.80;99.90;;;;;;5003958;28;20281;-73
2022/09/28 08:34:07;;;;;;;1.03;1.00;;;14.90;99.90;;;;;;5007179;28;20620;-74
2022/09/28 08:36:58;;;;;;;1.40;1.30;;;14.90;99.90;;;;;;5007355;28;20645;-73
2022/09/28 08:39:54;;;;;;;3.20;1.77;;;14.90;99.90;;;;;;4953624;28;20208;-73
2022/09/28 08:43:04;;;;;;;1.70;1.60;;;14.90;99.90;;;;;;4930552;29;20656;-74
2022/09/28 08:45:51;;;;;;;1.40;1.30;;;14.90;99.90;;;;;;4930994;29;20386;-73
2022/09/28 08:48:47;;;;;;;2.07;1.97;;;14.80;99.90;;;;;;4987954;28;20678;-73
2022/09/28 08:51:49;;;;;;;2.00;1.77;;;14.90;99.90;;;;;;5008629;28;20203;-73
2022/09/28 08:54:37;;;;;;;1.63;1.53;;;14.80;99.90;;;;;;5006283;28;20314;-73
2022/09/28 08:57:14;;;;;;;2.50;1.93;;;14.90;99.90;;;;;;5004523;28;20207;-73
2022/09/28 08:59:48;;;;;;;1.40;1.30;;;14.90;99.90;;;;;;5004638;28;20310;-73
2022/09/28 09:02:24;;;;;;;1.80;1.70;;;14.80;99.90;;;;;;5009806;28;20645;-74
2022/09/28 09:04:53;;;;;;;2.63;1.70;;;14.90;99.90;;;;;;5009150;28;20219;-74
2022/09/28 09:07:48;;;;;;;1.57;1.47;;;14.80;99.90;;;;;;5010510;28;20183;-73
2022/09/28 09:10:35;;;;;;;1.10;1.10;;;14.90;99.90;;;;;;5008066;28;20660;-74
2022/09/28 09:13:13;;;;;;;1.87;1.77;;;14.80;99.90;;;;;;5008648;28;20191;-73
2022/09/28 09:15:50;;;;;;;1.83;1.73;;;14.90;99.90;;;;;;5008373;28;20211;-74
2022/09/28 09:18:37;;;;;;;1.60;1.50;;;14.90;99.90;;;;;;5008837;28;20590;-74
2022/09/28 09:21:38;;;;;;;1.80;1.70;;;14.80;99.90;;;;;;5009058;28;20210;-74
2022/09/28 09:24:18;;;;;;;1.93;1.77;;;14.90;99.90;;;;;;5007692;28;20204;-74
2022/09/28 09:26:49;;;;;;;6.23;1.50;;;14.80;99.90;;;;;;5006107;28;20241;-74
2022/09/28 09:29:29;;;;;;;2.20;1.80;;;14.90;99.90;;;;;;5005996;28;20365;-74
2022/09/28 09:32:15;;;;;;;3.27;1.83;;;14.80;99.90;;;;;;5010880;28;20221;-74
2022/09/28 09:35:07;;;;;;;1.70;1.60;;;14.90;99.90;;;;;;5006807;28;20238;-74
2022/09/28 09:38:07;;;;;;;1.87;1.30;;;14.90;99.90;;;;;;5007865;28;20714;-74
2022/09/28 09:41:24;;;;;;;1.77;1.67;;;14.90;99.90;;;;;;4989110;28;20719;-72
2022/09/28 09:44:42;;;;;;;3.43;2.50;;;14.90;99.90;;;;;;4988396;28;20218;-75
2022/09/28 09:47:33;;;;;;;2.10;2.00;;;14.80;99.90;;;;;;5007663;28;20207;-74
2022/09/28 09:50:13;;;;;;;2.70;2.50;;;14.80;99.90;;;;;;5008598;28;20203;-74
2022/09/28 09:52:50;;;;;;;2.60;2.40;;;14.80;99.90;;;;;;5004845;28;20547;-74
2022/09/28 09:55:24;;;;;;;2.77;2.57;;;14.70;99.90;;;;;;5005075;28;20592;-74
2022/09/28 09:58:09;;;;;;;2.50;2.30;;;14.80;99.90;;;;;;5007272;28;20218;-74
2022/09/28 10:00:47;;;;;;;2.47;2.27;;;14.80;99.90;;;;;;5008727;28;20205;-74
2022/09/28 10:03:39;;;;;;;2.03;1.93;;;14.80;99.90;;;;;;5008135;28;20219;-73
2022/09/28 10:06:17;;;;;;;1.73;1.63;;;14.80;99.90;;;;;;5006690;28;20205;-74
2022/09/28 10:08:48;;;;;;;1.90;1.80;;;14.90;99.90;;;;;;5007489;28;20624;-74
2022/09/28 10:11:21;;;;;;;1.50;1.40;;;14.90;99.90;;;;;;5007325;28;20206;-74
2022/09/28 10:13:52;;;;;;;1.73;1.60;;;14.90;99.90;;;;;;5006970;28;20195;-73
2022/09/28 10:16:55;;;;;;;1.60;1.50;;;14.90;99.90;;;;;;4996540;28;20203;-73
2022/09/28 10:19:42;;;;;;;1.70;1.60;;;14.90;99.90;;;;;;5007801;28;20757;-73
2022/09/28 10:22:32;;;;;;;1.70;1.40;;;14.90;99.90;;;;;;5005493;28;20211;-73
2022/09/28 10:25:07;;;;;;;1.80;1.43;;;14.90;99.90;;;;;;5006650;28;20194;-73
2022/09/28 10:27:38;;;;;;;1.43;1.40;;;15.00;99.90;;;;;;5006637;28;20307;-74
2022/09/28 10:30:15;;;;;;;1.70;1.60;;;15.00;99.90;;;;;;5008142;28;20203;-74
2022/09/28 10:32:45;;;;;;;1.90;1.80;;;15.00;99.90;;;;;;5009812;28;20194;-73
2022/09/28 10:35:21;;;;;;;1.77;1.67;;;15.00;99.90;;;;;;5005805;28;20299;-74
2022/09/28 10:37:58;;;;;;;2.00;1.90;;;15.00;99.90;;;;;;5007143;28;20222;-74
2022/09/28 10:40:46;;;;;;;1.70;1.60;;;15.00;99.90;;;;;;5008685;28;20210;-74
2022/09/28 10:43:21;;;;;;;2.70;1.83;;;15.00;99.90;;;;;;5005252;28;20521;-75
2022/09/28 10:46:00;;;;;;;1.80;1.70;;;15.00;99.90;;;;;;5008523;28;20195;-74
2022/09/28 10:48:32;;;;;;;2.70;1.70;;;15.00;99.90;;;;;;5010158;28;20187;-74
2022/09/28 10:51:05;;;;;;;1.93;1.83;;;15.00;99.90;;;;;;5009143;28;20223;-73
2022/09/28 10:53:35;;;;;;;1.63;1.50;;;15.00;99.90;;;;;;5005635;28;20199;-74
2022/09/28 10:56:06;;;;;;;1.40;1.27;;;15.00;99.90;;;;;;5008226;28;20196;-73
2022/09/28 10:58:39;;;;;;;1.60;1.50;;;15.00;99.90;;;;;;5007314;28;20237;-74
2022/09/28 11:01:12;;;;;;;1.60;1.50;;;15.00;99.90;;;;;;5021720;28;20234;-74
2022/09/28 11:03:50;;;;;;;2.33;2.20;;;15.10;99.90;;;;;;5009802;28;20207;-74
2022/09/28 11:06:25;;;;;;;2.43;2.23;;;15.00;99.90;;;;;;5006707;28;20660;-74
2022/09/28 11:08:54;;;;;;;2.37;2.20;;;15.00;99.90;;;;;;5008034;28;20223;-74
2022/09/28 11:11:23;;;;;;;2.80;2.60;;;15.00;99.90;;;;;;5004987;28;20203;-74
2022/09/28 11:14:03;;;;;;;2.07;1.97;;;15.00;99.90;;;;;;5007420;28;20245;-73
2022/09/28 11:16:36;;;;;;;2.00;1.90;;;14.90;99.90;;;;;;5007539;28;20211;-74
2022/09/28 11:19:26;;;;;;;2.20;2.10;;;14.90;99.90;;;;;;5006380;28;20213;-74
2022/09/28 11:21:54;;;;;;;2.20;2.00;;;14.90;99.90;;;;;;5006941;28;20700;-74
2022/09/28 11:24:26;;;;;;;1.77;1.67;;;14.90;99.90;;;;;;5004176;28;20199;-73
2022/09/28 11:26:58;;;;;;;1.47;1.40;;;14.90;99.90;;;;;;5005718;28;20194;-75
2022/09/28 11:29:36;;;;;;;1.20;1.20;;;14.90;99.90;;;;;;5006984;28;20195;-74
2022/09/28 11:32:42;;;;;;;1.80;1.70;;;14.80;99.90;;;;;;4989887;28;20199;-74
2022/09/28 11:35:44;;;;;;;1.70;1.60;;;14.90;99.90;;;;;;4960348;28;20238;-75
2022/09/28 11:38:25;;;;;;;1.57;1.47;;;14.90;99.90;;;;;;5006119;28;20353;-74
2022/09/28 11:41:28;;;;;;;2.10;1.47;;;14.90;99.90;;;;;;5007850;28;20234;-75
2022/09/28 11:44:23;;;;;;;1.37;1.27;;;15.10;99.90;;;;;;5006522;28;20286;-75
2022/09/28 11:47:23;;;;;;;1.87;1.77;;;15.30;99.90;;;;;;5006008;28;20611;-75
2022/09/28 11:49:57;;;;;;;2.70;1.87;;;15.90;99.90;;;;;;5004029;28;20294;-75
2022/09/28 11:52:30;;;;;;;1.90;1.80;;;16.30;99.90;;;;;;5005267;28;20321;-75
2022/09/28 11:55:02;;;;;;;2.07;1.97;;;16.50;99.90;;;;;;5006600;28;20207;-75
2022/09/28 11:57:36;;;;;;;2.13;1.90;;;16.50;99.90;;;;;;5005029;28;20216;-75
2022/09/28 12:00:07;;;;;;;1.97;1.10;;;16.40;99.90;;;;;;5006728;28;20207;-74
2022/09/28 12:02:49;;;;;;;0.90;0.90;;;16.40;99.90;;;;;;5007035;28;20265;-75
2022/09/28 12:05:22;;;;;;;1.10;1.10;;;16.50;99.90;;;;;;5001721;28;20205;-74
2022/09/28 12:07:56;;;;;;;0.87;0.87;;;17.00;99.90;;;;;;5005666;28;20635;-74
2022/09/28 12:11:00;;;;;;;1.00;1.00;;;17.20;99.90;;;;;;4969656;28;20206;-74
2022/09/28 12:14:05;;;;;;;1.40;1.30;;;17.30;99.90;;;;;;5007590;28;20670;-74
2022/09/28 12:16:38;;;;;;;4.93;1.38;;;17.40;99.90;;;;;;4997684;28;20238;-74
2022/09/28 12:19:12;;;;;;;1.73;0.93;;;17.50;99.90;;;;;;5003645;28;20570;-75
2022/09/28 12:21:45;;;;;;;0.80;0.80;;;17.80;99.90;;;;;;5005320;28;20205;-72
2022/09/28 12:24:18;;;;;;;0.80;0.80;;;18.10;99.90;;;;;;5004600;28;20206;-73
2022/09/28 12:26:51;;;;;;;1.50;1.02;;;18.20;99.50;;;;;;5005183;28;20544;-73
2022/09/28 12:29:22;;;;;;;1.05;1.05;;;18.30;98.90;;;;;;5007655;28;20232;-73
2022/09/28 12:31:59;;;;;;;0.70;0.70;;;18.70;98.30;;;;;;5008944;28;20675;-73
2022/09/28 12:34:26;;;;;;;0.73;0.73;;;19.20;97.70;;;;;;5007585;28;20202;-73
2022/09/28 12:37:07;;;;;;;0.70;0.70;;;19.70;97.40;;;;;;5008070;28;20195;-74
2022/09/28 12:39:52;;;;;;;0.77;0.77;;;19.90;95.60;;;;;;5003286;28;20667;-74
2022/09/28 12:42:33;;;;;;;0.75;0.75;;;19.90;95.20;;;;;;5005064;28;20219;-74
2022/09/28 12:45:17;;;;;;;0.70;0.70;;;20.10;94.10;;;;;;5006006;28;20294;-74
2022/09/28 12:48:03;;;;;;;0.68;0.68;;;20.10;93.90;;;;;;5005626;28;20203;-74
2022/09/28 12:50:37;;;;;;;1.42;0.77;;;20.20;93.70;;;;;;5007741;28;20298;-74
2022/09/28 12:53:19;;;;;;;0.60;0.60;;;20.10;93.40;;;;;;5004820;28;20195;-74
2022/09/28 12:56:01;;;;;;;0.70;0.70;;;20.20;93.10;;;;;;5004272;28;20521;-74
2022/09/28 12:58:54;;;;;;;1.20;0.55;;;20.00;92.90;;;;;;5006103;28;20269;-75
2022/09/28 13:01:37;;;;;;;0.70;0.70;;;19.50;93.00;;;;;;5005114;28;20214;-74
2022/09/28 13:04:46;;;;;;;0.77;0.77;;;19.00;93.20;;;;;;5004189;28;20663;-74
2022/09/28 13:07:23;;;;;;;1.35;0.63;;;18.70;93.30;;;;;;4969081;28;20689;-74
2022/09/28 13:10:00;;;;;;;0.70;0.70;;;18.30;93.60;;;;;;5005738;28;20272;-74
2022/09/28 13:12:40;;;;;;;0.88;0.60;;;18.10;93.80;;;;;;5006795;28;20634;-74
2022/09/28 13:15:27;;;;;;;0.70;0.70;;;17.90;93.90;;;;;;5006553;28;20298;-74
2022/09/28 13:18:07;;;;;;;1.52;0.90;;;17.80;94.00;;;;;;5007361;28;20199;-73
2022/09/28 13:21:00;;;;;;;1.38;1.10;;;17.60;93.90;;;;;;5005426;28;20238;-74
2022/09/28 13:23:30;;;;;;;0.70;0.70;;;17.40;93.80;;;;;;4990597;28;20214;-74
2022/09/28 13:26:03;;;;;;;0.77;0.73;;;17.30;93.80;;;;;;5002166;28;21370;-74
2022/09/28 13:28:34;;;;;;;0.98;0.90;;;17.30;93.70;;;;;;5006525;28;20195;-74
2022/09/28 13:31:03;;;;;;;2.00;1.00;;;17.20;93.50;;;;;;5010338;28;20556;-74
2022/09/28 13:33:35;;;;;;;8.02;5.00;;;17.10;93.50;;;;;;5001950;28;20210;-74
2022/09/28 13:36:04;;;;;;;3.90;3.47;;;17.00;93.90;;;;;;5007736;28;20297;-75
2022/09/28 13:38:48;;;;;;;2.40;2.20;;;16.90;93.70;;;;;;5003253;28;20214;-75